Latest Weather Observations for Karratha

IDW60801

Issued at 9:05 pm WST Wednesday 30 July 2014 (issued every 30 minutes, with the page automatically refreshed every 10 minutes)

About weather observations | Map of weather stations | Latest weather observations for WA | Other Formats
Station Details ID: 004083 Name: KARRATHA AERO Lat: -20.71 Lon: 116.77 Height: 5.3 m
Data from the previous 72 hours. | See also: Recent months at Karratha
Date/Time
WST
Temp
°C
App
Temp
°C
Dew
Point
Rel
Hum
%
Delta-T
°C
Wind Press
QNH
hPa
Press
MSL
hPa
Rain
since 9 am
mm
Dir
 
Spd
km/h
Gust
km/h
Spd
kts
Gust
kts
30/09:00pm 19.8 19.3 12.8 64 3.9 ESE 7 7 4 4 1017.2 1017.2 0.0
30/08:30pm 20.2 18.9 12.4 61 4.4 SSE 11 13 6 7 1017.3 - 0.0
30/08:00pm 23.4 23.0 9.8 42 7.4 WNW 2 6 1 3 1016.9 - 0.0
30/07:30pm 24.3 22.3 8.7 37 8.4 NNE 9 13 5 7 1016.7 - 0.0
30/07:00pm 24.1 22.7 9.7 40 7.9 N 7 13 4 7 1016.5 - 0.0
30/06:30pm 24.4 21.4 9.2 38 8.2 N 15 20 8 11 1016.4 - 0.0
30/06:00pm 25.0 21.0 8.9 36 8.7 NNE 20 28 11 15 1016.1 1016.1 0.0
30/05:30pm 25.1 21.0 10.2 39 8.2 NNE 22 28 12 15 1016.2 - 0.0
30/05:00pm 25.5 21.4 11.3 41 8.0 NNE 24 30 13 16 1016.2 - 0.0
30/04:30pm 25.8 21.5 10.8 39 8.4 NNE 24 30 13 16 1016.1 - 0.0
30/04:00pm 26.4 22.4 10.5 37 8.9 NE 22 30 12 16 1016.0 - 0.0
30/03:30pm 26.8 22.2 9.6 34 9.5 NE 24 32 13 17 1016.1 - 0.0
30/03:00pm 26.4 21.3 9.3 34 9.4 NE 26 33 14 18 1016.2 1016.2 0.0
30/02:30pm 27.2 21.2 8.6 31 10.1 NE 30 39 16 21 1016.4 - 0.0
30/02:00pm 27.1 20.8 7.5 29 10.5 NE 30 39 16 21 1016.6 - 0.0
30/01:30pm 27.5 22.2 6.8 27 10.9 NE 24 32 13 17 1017.1 - 0.0
30/01:00pm 27.1 21.8 7.0 28 10.6 NE 24 32 13 17 1017.4 - 0.0
30/12:30pm 27.6 22.2 8.0 29 10.6 NE 26 33 14 18 1017.9 - 0.0
30/12:00pm 28.2 22.8 8.0 28 10.9 NE 26 33 14 18 1018.2 1018.2 0.0
30/11:30am 28.3 23.0 7.0 26 11.4 NE 24 30 13 16 1018.4 - 0.0
30/11:00am 28.1 23.7 7.4 27 11.1 NE 20 26 11 14 1018.8 - 0.0
30/10:30am 28.1 23.9 7.4 27 11.1 ENE 19 26 10 14 1018.9 - 0.0
30/10:00am 27.7 23.0 5.9 25 11.4 E 20 28 11 15 1019.0 - 0.0
30/09:30am 27.0 22.5 5.9 26 10.9 E 19 26 10 14 1019.2 - 0.0
30/09:00am 25.7 22.0 6.3 29 10.0 SE 15 20 8 11 1018.9 1018.9 0.0
30/08:30am 23.9 20.3 6.7 33 8.9 SE 15 17 8 9 1018.8 - 0.0
30/08:00am 21.4 19.4 7.3 40 7.3 ESE 7 11 4 6 1018.8 - 0.0
30/07:30am 18.1 15.7 6.9 48 5.6 SSE 9 11 5 6 1018.7 - 0.0
30/07:00am 15.4 13.5 6.7 56 4.2 SE 6 7 3 4 1018.5 - 0.0
30/06:30am 15.7 13.8 6.7 55 4.4 SE 6 9 3 5 1018.2 - 0.0
30/06:00am 15.9 14.1 7.1 56 4.3 ESE 6 9 3 5 1018.0 1018.0 0.0
30/05:30am 15.6 13.6 6.9 56 4.3 ESE 7 11 4 6 1017.6 - 0.0
30/05:00am 16.9 15.0 6.7 51 5.0 ESE 6 13 3 7 1017.3 - 0.0
30/04:30am 16.4 12.8 6.8 53 4.7 S 15 17 8 9 1017.0 - 0.0
30/04:00am 17.0 14.5 6.5 50 5.2 S 9 11 5 6 1017.1 - 0.0
30/03:30am 17.7 13.3 6.6 48 5.5 S 19 20 10 11 1017.0 - 0.0
30/03:00am 17.0 14.6 7.1 52 4.9 S 9 15 5 8 1017.1 1017.1 0.0
30/02:30am 17.4 16.5 7.7 53 4.9 SSE 2 7 1 4 1017.3 - 0.0
30/02:00am 17.0 14.4 7.9 55 4.6 S 11 15 6 8 1017.6 - 0.0
30/01:30am 19.4 18.6 8.1 48 5.8 SSW 2 9 1 5 1017.8 - 0.0
30/01:00am 19.3 17.1 9.5 53 5.2 SW 11 13 6 7 1018.0 - 0.0
30/12:30am 19.4 17.8 8.1 48 5.8 SSW 6 7 3 4 1018.1 - 0.0
30/12:00am 19.8 17.6 7.9 46 6.1 S 9 13 5 7 1018.0 1018.0 0.0
 
Date/Time
WST
Temp
°C
App
Temp
°C
Dew
Point
Rel
Hum
%
Delta-T
°C
Wind Press
QNH
hPa
Press
MSL
hPa
Rain
since 9 am
mm
Dir
 
Spd
km/h
Gust
km/h
Spd
kts
Gust
kts
29/11:30pm 19.3 17.4 8.9 51 5.4 SSW 9 11 5 6 1017.9 - 0.0
29/11:00pm 19.7 17.9 9.6 52 5.4 SSW 9 11 5 6 1018.1 - 0.0
29/10:30pm 20.2 20.5 10.9 55 5.1 CALM 0 6 0 3 1018.2 - 0.0
29/10:00pm 20.3 19.7 12.3 60 4.5 ENE 7 11 4 6 1018.2 - 0.0
29/09:30pm 21.2 20.0 11.5 54 5.4 NNE 9 11 5 6 1018.2 - 0.0
29/09:00pm 21.4 20.2 9.6 47 6.3 NE 6 9 3 5 1018.1 1018.1 0.0
29/08:30pm 21.1 20.4 8.4 44 6.7 SW 2 11 1 6 1017.9 - 0.0
29/08:00pm 20.3 17.9 8.6 47 6.1 SSE 11 15 6 8 1017.5 - 0.0
29/07:30pm 21.1 18.2 10.9 52 5.6 SSE 17 19 9 10 1017.4 - 0.0
29/07:00pm 21.4 20.5 12.5 57 5.0 ESE 9 11 5 6 1017.5 - 0.0
29/06:30pm 22.4 21.5 11.5 50 6.1 E 7 9 4 5 1017.3 - 0.0
29/06:00pm 23.3 21.6 9.7 42 7.4 NE 9 11 5 6 1017.2 1017.2 0.0
29/05:30pm 25.6 22.7 8.1 33 9.4 NE 13 17 7 9 1017.1 - 0.0
29/05:00pm 26.9 23.2 7.9 30 10.2 NE 17 20 9 11 1016.8 - 0.0
29/04:30pm 27.3 23.3 8.2 30 10.3 NNE 19 26 10 14 1016.8 - 0.0
29/04:00pm 27.4 23.3 7.8 29 10.5 NE 19 24 10 13 1016.7 - 0.0
29/03:49pm 27.6 23.5 8.0 29 10.6 NNE 19 26 10 14 1016.8 - 0.0
29/03:32pm 28.2 23.7 6.9 26 11.3 NE 20 24 11 13 1016.8 - 0.0
29/03:30pm 28.4 23.9 7.1 26 11.4 NE 20 26 11 14 1016.8 - 0.0
29/03:00pm 28.1 23.2 6.8 26 11.3 NE 22 26 12 14 1016.9 1016.9 0.0
29/02:30pm 28.9 23.8 7.5 26 11.5 NE 24 30 13 16 1016.9 - 0.0
29/02:00pm 28.0 22.6 7.8 28 10.9 NE 26 32 14 17 1017.0 - 0.0
29/01:30pm 28.4 23.2 7.1 26 11.4 NNE 24 32 13 17 1017.3 - 0.0
29/01:00pm 28.8 24.0 7.4 26 11.5 NE 22 30 12 16 1017.5 - 0.0
29/12:30pm 28.6 23.3 6.7 25 11.6 NE 24 32 13 17 1018.0 - 0.0
29/12:00pm 28.3 24.2 8.6 29 10.8 NE 20 28 11 15 1018.4 1018.4 0.0
29/11:30am 27.4 23.2 7.3 28 10.7 NE 19 22 10 12 1018.7 - 0.0
29/11:00am 28.3 24.4 5.2 23 11.9 ENE 15 19 8 10 1018.8 - 0.0
29/10:30am 27.7 24.2 5.3 24 11.6 NE 13 15 7 8 1019.0 - 0.0
29/10:00am 28.0 24.3 4.3 22 12.0 E 13 19 7 10 1019.0 - 0.0
29/09:30am 26.6 23.2 3.8 23 11.4 SE 11 15 6 8 1019.0 - 0.0
29/09:00am 24.8 20.9 3.5 25 10.4 SSE 13 17 7 9 1018.9 1018.9 0.0
29/08:30am 22.7 17.7 3.8 29 9.2 S 19 24 10 13 1018.4 - 0.0
29/08:00am 20.2 16.7 3.4 33 7.9 SSE 11 17 6 9 1018.3 - 0.0
29/07:30am 17.5 13.7 4.1 41 6.3 S 13 15 7 8 1018.2 - 0.0
29/07:00am 16.7 14.2 3.7 42 6.0 SE 6 7 3 4 1017.9 - 0.0
29/06:30am 16.1 13.7 4.5 46 5.4 SSE 6 9 3 5 1017.6 - 0.0
29/06:00am 16.2 14.7 4.9 47 5.3 NNE 2 11 1 6 1017.3 1017.3 0.0
29/05:30am 16.8 13.6 3.1 40 6.3 SE 9 13 5 7 1017.1 - 0.0
29/05:00am 17.3 15.6 3.9 41 6.3 E 2 9 1 5 1017.0 - 0.0
29/04:30am 18.2 15.1 3.7 38 6.8 ESE 9 15 5 8 1016.9 - 0.0
29/04:00am 16.1 12.7 6.0 51 4.9 ESE 13 15 7 8 1016.8 - 0.0
29/03:30am 15.8 13.7 6.0 52 4.7 ESE 6 15 3 8 1016.8 - 0.0
29/03:00am 16.7 13.0 6.2 50 5.1 S 15 19 8 10 1017.0 1017.0 0.0
29/02:30am 17.1 13.5 6.6 50 5.2 S 15 17 8 9 1017.2 - 0.0
29/02:00am 17.3 13.2 6.2 48 5.4 S 17 20 9 11 1017.5 - 0.0
29/01:30am 17.5 13.8 6.1 47 5.6 S 15 17 8 9 1017.7 - 0.0
29/01:00am 19.3 15.5 5.7 41 6.7 S 15 19 8 10 1017.9 - 0.0
29/12:30am 18.8 16.2 6.3 44 6.2 WSW 9 13 5 7 1018.0 - 0.0
29/12:00am 18.0 16.3 7.4 50 5.3 WSW 6 9 3 5 1018.0 1018.0 0.0
 
Date/Time
WST
Temp
°C
App
Temp
°C
Dew
Point
Rel
Hum
%
Delta-T
°C
Wind Press
QNH
hPa
Press
MSL
hPa
Rain
since 9 am
mm
Dir
 
Spd
km/h
Gust
km/h
Spd
kts
Gust
kts
28/11:30pm 18.7 16.2 8.4 51 5.3 WSW 11 13 6 7 1018.1 - 0.0
28/11:00pm 20.0 17.2 11.5 58 4.7 WSW 17 17 9 9 1018.3 - 0.0
28/10:30pm 19.6 18.3 13.8 69 3.3 WSW 13 15 7 8 1018.3 - 0.0
28/10:00pm 21.4 19.6 13.3 60 4.6 WSW 15 19 8 10 1018.3 - 0.0
28/09:30pm 21.7 20.7 13.3 59 4.8 W 11 17 6 9 1018.3 - 0.0
28/09:00pm 21.5 21.1 15.3 68 3.7 W 11 15 6 8 1018.3 1018.3 0.0
28/08:30pm 22.2 21.3 13.8 59 4.9 W 11 15 6 8 1018.2 - 0.0
28/08:00pm 22.1 21.5 14.7 63 4.4 WNW 11 13 6 7 1018.1 - 0.0
28/07:30pm 22.5 21.6 14.9 62 4.5 WNW 13 15 7 8 1018.0 - 0.0
28/07:00pm 23.1 22.3 14.1 57 5.3 NW 11 13 6 7 1017.7 - 0.0
28/06:30pm 23.6 22.3 13.8 54 5.7 WNW 13 17 7 9 1017.4 - 0.0
28/06:00pm 24.5 23.2 13.7 51 6.3 WNW 13 17 7 9 1016.9 1016.9 0.0
28/05:30pm 25.5 23.2 11.7 42 7.9 WNW 15 17 8 9 1016.6 - 0.0
28/05:00pm 25.6 24.1 13.1 46 7.3 NNW 13 17 7 9 1016.4 - 0.0
28/04:30pm 26.7 23.7 10.8 37 9.0 N 17 24 9 13 1016.3 - 0.0
28/04:00pm 27.4 24.5 9.7 33 9.8 N 15 20 8 11 1016.1 - 0.0
28/03:30pm 28.5 24.6 7.1 26 11.4 NNE 17 22 9 12 1016.1 - 0.0
28/03:00pm 28.7 24.8 7.3 26 11.5 NNE 17 20 9 11 1016.2 1016.2 0.0
28/02:30pm 30.1 27.2 6.7 23 12.5 NNW 11 15 6 8 1016.3 - 0.0
28/02:00pm 29.9 27.4 6.5 23 12.5 NNW 9 15 5 8 1016.6 - 0.0
28/01:30pm 29.9 25.5 4.5 20 13.1 NNE 17 20 9 11 1017.3 - 0.0
28/01:00pm 30.1 26.8 4.7 20 13.2 NNW 11 19 6 10 1017.7 - 0.0
28/12:30pm 30.1 27.1 4.0 19 13.4 NW 9 13 5 7 1018.1 - 0.0
28/12:00pm 29.7 26.4 4.4 20 13.0 W 11 17 6 9 1018.6 1018.6 0.0
28/11:30am 30.4 28.0 4.2 19 13.5 S 6 13 3 7 1018.9 - 0.0
28/11:00am 29.1 25.7 3.9 20 12.8 SSE 11 17 6 9 1019.3 - 0.0
28/10:30am 29.0 24.4 3.8 20 12.8 SSE 17 20 9 11 1019.5 - 0.0
28/10:00am 28.1 23.5 3.7 21 12.3 SSE 17 20 9 11 1019.8 - 0.0
28/09:30am 25.9 22.2 2.6 22 11.3 S 11 20 6 11 1019.9 - 0.0
28/09:00am 23.8 19.5 3.2 26 9.9 SSW 15 20 8 11 1019.9 1019.9 0.0
28/08:30am 22.2 18.4 3.8 30 8.9 SSW 13 17 7 9 1019.6 - 0.0
28/08:00am 19.1 15.2 7.2 46 6.0 WSW 17 20 9 11 1019.6 - 0.0
28/07:30am 16.2 14.2 10.3 68 3.1 SW 11 11 6 6 1019.5 - 0.0
28/07:00am 13.6 13.2 9.8 78 2.0 NNE 2 9 1 5 1019.4 - 0.0
28/06:30am 12.8 12.4 9.6 81 1.6 E 2 7 1 4 1019.1 - 0.0
28/06:00am 13.0 12.6 9.6 80 1.7 E 2 7 1 4 1018.8 1018.8 0.0
28/05:30am 14.4 13.1 9.8 74 2.4 WSW 7 9 4 5 1018.6 - 0.0
28/05:00am 15.3 12.9 10.1 71 2.7 WSW 13 15 7 8 1018.5 - 0.0
28/04:30am 15.3 13.7 10.3 72 2.6 NW 9 13 5 7 1018.4 - 0.0
28/04:00am 15.7 13.8 10.5 71 2.7 W 11 13 6 7 1018.2 - 0.0
28/03:30am 14.6 13.2 10.8 78 2.0 SSW 9 13 5 7 1018.2 - 0.0
28/03:00am 15.6 13.0 10.8 73 2.5 SW 15 17 8 9 1018.3 1018.3 0.0
28/02:30am 14.2 12.0 9.4 73 2.5 SW 11 15 6 8 1018.5 - 0.0
28/02:00am 16.4 15.5 10.7 69 3.0 W 6 7 3 4 1018.7 - 0.0
28/01:30am 15.8 13.9 9.2 65 3.4 SW 9 11 5 6 1018.9 - 0.0
28/01:00am 15.4 14.1 9.3 67 3.1 SW 6 7 3 4 1019.0 - 0.0
28/12:47am 15.9 14.4 9.3 65 3.4 SSW 7 9 4 5 1019.0 - 0.0
28/12:30am 15.4 14.0 9.5 68 3.0 SSW 7 11 4 6 1019.3 - 0.0
28/12:29am 15.2 13.4 9.3 68 3.0 S 9 11 5 6 1019.3 - 0.0
28/12:00am 16.6 15.3 9.8 64 3.6 SW 7 9 4 5 1019.5 1019.5 0.0
 
Date/Time
WST
Temp
°C
App
Temp
°C
Dew
Point
Rel
Hum
%
Delta-T
°C
Wind Press
QNH
hPa
Press
MSL
hPa
Rain
since 9 am
mm
Dir
 
Spd
km/h
Gust
km/h
Spd
kts
Gust
kts
27/11:30pm 19.1 17.7 10.9 59 4.5 W 9 13 5 7 1019.5 - 0.0
27/11:00pm 19.4 17.8 11.4 60 4.4 WNW 11 15 6 8 1019.6 - 0.0
27/10:30pm 17.4 14.2 8.5 56 4.6 SSW 15 17 8 9 1019.5 - 0.0
27/10:00pm 17.7 16.4 10.1 61 4.0 W 7 9 4 5 1019.6 - 0.0
27/09:30pm 17.4 14.5 9.8 61 4.0 SW 15 17 8 9 1019.6 - 0.0

Other Formats:

Comma delimited format used in spreadsheet applications
http://www.bom.gov.au/fwo/IDW60801/IDW60801.95307.axf

JavaScript Object Notation format (JSON) in row-major order
http://www.bom.gov.au/fwo/IDW60801/IDW60801.95307.json